createdAt,value
2022-08-24T00:01:24.874Z,21.10
2022-08-24T00:03:55.209Z,21.10
2022-08-24T00:06:23.287Z,21.10
2022-08-24T00:08:51.811Z,20.90
2022-08-24T00:11:19.673Z,20.90
2022-08-24T00:13:51.344Z,20.90
2022-08-24T00:16:22.272Z,20.80
2022-08-24T00:18:49.317Z,20.80
2022-08-24T00:21:18.967Z,20.90
2022-08-24T00:23:46.502Z,21.00
2022-08-24T00:26:13.238Z,20.90
2022-08-24T00:28:45.169Z,20.90
2022-08-24T00:31:14.059Z,20.80
2022-08-24T00:33:40.953Z,20.80
2022-08-24T00:36:08.378Z,20.70
2022-08-24T00:38:36.434Z,20.60
2022-08-24T00:41:07.842Z,20.60
2022-08-24T00:43:35.072Z,20.40
2022-08-24T00:46:18.236Z,20.50
2022-08-24T00:48:48.848Z,20.50
2022-08-24T00:51:23.762Z,20.50
2022-08-24T00:53:55.414Z,20.50
2022-08-24T00:56:31.335Z,20.50
2022-08-24T00:59:03.473Z,20.50
2022-08-24T01:01:33.395Z,20.50
2022-08-24T01:04:00.749Z,20.40
2022-08-24T01:06:27.801Z,20.30
2022-08-24T01:08:56.804Z,20.30
2022-08-24T01:11:27.446Z,20.30
2022-08-24T01:14:01.987Z,20.30
2022-08-24T01:16:52.126Z,20.30
2022-08-24T01:19:51.360Z,20.30
2022-08-24T01:22:44.945Z,20.30
2022-08-24T01:25:11.866Z,20.30
2022-08-24T01:27:39.755Z,20.20
2022-08-24T01:30:11.831Z,20.20
2022-08-24T01:32:42.153Z,20.20
2022-08-24T01:35:09.567Z,20.20
2022-08-24T01:37:36.770Z,20.20
2022-08-24T01:40:08.073Z,20.10
2022-08-24T01:42:36.052Z,20.10
2022-08-24T01:45:04.515Z,20.00
2022-08-24T01:47:31.183Z,20.00
2022-08-24T01:49:57.979Z,19.90
2022-08-24T01:52:27.964Z,19.90
2022-08-24T01:54:58.916Z,19.80
2022-08-24T01:57:26.865Z,19.80
2022-08-24T01:59:53.914Z,19.80
2022-08-24T02:02:29.752Z,19.80
2022-08-24T02:04:56.995Z,19.70
2022-08-24T02:07:24.403Z,19.70
2022-08-24T02:09:51.430Z,19.70
2022-08-24T02:12:19.808Z,19.60
2022-08-24T02:14:48.784Z,19.50
2022-08-24T02:17:15.981Z,19.40
2022-08-24T02:19:43.197Z,19.30
2022-08-24T02:22:09.965Z,19.20
2022-08-24T02:24:39.343Z,19.20
2022-08-24T02:27:09.565Z,19.10
2022-08-24T02:29:36.526Z,19.10
2022-08-24T02:32:03.845Z,19.10
2022-08-24T02:34:30.684Z,19.10
2022-08-24T02:36:57.938Z,19.10
2022-08-24T02:39:24.704Z,19.00
2022-08-24T02:41:52.544Z,19.00
2022-08-24T02:44:19.481Z,18.90
2022-08-24T02:46:46.341Z,19.00
2022-08-24T02:49:15.688Z,19.00
2022-08-24T02:51:48.618Z,19.10
2022-08-24T02:54:21.560Z,19.20
2022-08-24T02:56:48.780Z,19.20
2022-08-24T02:59:16.825Z,19.20
2022-08-24T03:01:44.831Z,19.30
2022-08-24T03:04:11.999Z,19.30
2022-08-24T03:06:39.106Z,19.30
2022-08-24T03:09:05.938Z,19.30
2022-08-24T03:11:32.751Z,19.30
2022-08-24T03:13:59.581Z,19.30
2022-08-24T03:16:29.677Z,19.30
2022-08-24T03:18:59.016Z,19.30
2022-08-24T03:21:26.616Z,19.20
2022-08-24T03:23:53.325Z,19.20
2022-08-24T03:26:20.330Z,19.30
2022-08-24T03:28:47.132Z,19.20
2022-08-24T03:31:16.597Z,19.30
2022-08-24T03:33:43.624Z,19.20
2022-08-24T03:36:14.132Z,19.30
2022-08-24T03:38:41.707Z,19.30
2022-08-24T03:41:09.285Z,19.30
2022-08-24T03:43:46.319Z,19.30
2022-08-24T03:46:18.566Z,19.30
2022-08-24T03:48:47.461Z,19.30
2022-08-24T03:51:16.067Z,19.30
2022-08-24T03:53:43.004Z,19.30
2022-08-24T03:56:11.523Z,19.40
2022-08-24T03:58:41.587Z,19.40
2022-08-24T04:01:09.378Z,19.40
2022-08-24T04:03:40.481Z,19.40
2022-08-24T04:06:09.042Z,19.50
2022-08-24T04:08:40.704Z,19.50
2022-08-24T04:11:12.138Z,19.50
2022-08-24T04:13:39.066Z,19.50
2022-08-24T04:16:06.937Z,19.50
2022-08-24T04:18:34.304Z,19.50
2022-08-24T04:21:01.777Z,19.50
2022-08-24T04:23:46.858Z,19.50
2022-08-24T04:26:15.024Z,19.40
2022-08-24T04:28:41.968Z,19.30
2022-08-24T04:31:08.787Z,19.30
2022-08-24T04:33:35.934Z,19.20
2022-08-24T04:36:06.336Z,19.10
2022-08-24T04:38:33.147Z,19.10
2022-08-24T04:41:00.206Z,19.10
2022-08-24T04:43:27.268Z,18.90
2022-08-24T04:45:54.036Z,18.90
2022-08-24T04:48:20.800Z,18.90
2022-08-24T04:50:47.918Z,19.00
2022-08-24T04:53:15.795Z,18.90
2022-08-24T04:55:45.839Z,18.90
2022-08-24T04:58:14.676Z,18.90
2022-08-24T05:00:43.702Z,19.00
2022-08-24T05:03:11.307Z,19.00
2022-08-24T05:05:42.954Z,19.10
2022-08-24T05:08:10.660Z,19.10
2022-08-24T05:10:42.996Z,19.10
2022-08-24T05:13:10.456Z,19.20
2022-08-24T05:15:46.055Z,19.10
2022-08-24T05:18:14.491Z,19.20
2022-08-24T05:20:45.729Z,19.30
2022-08-24T05:23:13.800Z,19.30
2022-08-24T05:25:41.475Z,19.40
2022-08-24T05:28:10.951Z,19.50
2022-08-24T05:30:41.930Z,19.60
2022-08-24T05:33:09.696Z,19.60
2022-08-24T05:35:43.610Z,19.70
2022-08-24T05:38:10.707Z,19.70
2022-08-24T05:40:37.752Z,19.60
2022-08-24T05:43:06.775Z,19.60
2022-08-24T05:45:33.533Z,19.50
2022-08-24T05:48:00.330Z,19.60
2022-08-24T05:50:27.119Z,19.60
2022-08-24T05:52:53.816Z,19.60
2022-08-24T05:55:22.999Z,19.70
2022-08-24T05:57:50.364Z,19.70
2022-08-24T06:00:17.510Z,19.80
2022-08-24T06:02:44.424Z,19.90
2022-08-24T06:05:11.542Z,20.00
2022-08-24T06:07:38.309Z,20.10
2022-08-24T06:10:32.803Z,20.20
2022-08-24T06:12:54.526Z,20.30
2022-08-24T06:15:22.014Z,20.30
2022-08-24T06:17:48.763Z,20.40
2022-08-24T06:20:17.974Z,20.50
2022-08-24T06:22:44.704Z,20.60
2022-08-24T06:25:32.589Z,20.70
2022-08-24T06:27:59.248Z,20.80
2022-08-24T06:30:30.662Z,20.90
2022-08-24T06:33:05.797Z,20.90
2022-08-24T06:35:32.607Z,21.00
2022-08-24T06:37:59.493Z,21.10
2022-08-24T06:40:27.524Z,21.10
2022-08-24T06:42:54.886Z,21.20
2022-08-24T06:45:22.293Z,21.20
2022-08-24T06:47:49.025Z,21.30
2022-08-24T06:50:18.164Z,21.40
2022-08-24T06:52:48.805Z,21.40
2022-08-24T06:55:15.550Z,21.50
2022-08-24T06:57:42.881Z,21.60
2022-08-24T07:00:10.915Z,21.70
2022-08-24T07:02:41.200Z,21.80
2022-08-24T07:05:08.545Z,21.90
2022-08-24T07:07:35.251Z,22.00
2022-08-24T07:10:02.047Z,22.10
2022-08-24T07:12:28.845Z,22.20
2022-08-24T07:14:55.597Z,22.30
2022-08-24T07:17:24.453Z,22.30
2022-08-24T07:19:51.243Z,22.40
2022-08-24T07:22:17.936Z,22.50
2022-08-24T07:24:44.634Z,22.60
2022-08-24T07:27:13.957Z,22.70
2022-08-24T07:29:52.758Z,22.70
2022-08-24T07:32:26.695Z,22.80
2022-08-24T07:34:53.466Z,22.90
2022-08-24T07:37:20.447Z,23.00
2022-08-24T07:39:49.419Z,23.10
2022-08-24T07:42:23.242Z,23.20
2022-08-24T07:44:57.340Z,23.30
2022-08-24T07:47:43.813Z,23.30
2022-08-24T07:50:11.797Z,23.50
2022-08-24T07:52:38.697Z,23.60
2022-08-24T07:55:06.292Z,23.60
2022-08-24T07:57:33.120Z,23.60
2022-08-24T08:00:00.603Z,23.70
2022-08-24T08:02:36.138Z,23.80
2022-08-24T08:05:03.460Z,24.00
2022-08-24T08:07:31.278Z,24.10
2022-08-24T08:09:58.473Z,24.20
2022-08-24T08:12:25.176Z,24.20
2022-08-24T08:14:54.022Z,24.10
2022-08-24T08:17:20.789Z,24.10
2022-08-24T08:19:47.494Z,24.20
2022-08-24T08:22:35.266Z,24.40
2022-08-24T08:25:02.163Z,24.60
2022-08-24T08:27:28.911Z,24.70
2022-08-24T08:29:55.600Z,24.90
2022-08-24T08:32:22.377Z,25.10
2022-08-24T08:34:49.286Z,25.10
2022-08-24T08:37:16.153Z,25.00
2022-08-24T08:39:43.751Z,25.00
2022-08-24T08:42:40.668Z,25.10
2022-08-24T08:45:31.811Z,25.10
2022-08-24T08:48:40.825Z,25.30
2022-08-24T08:51:41.115Z,25.60
2022-08-24T08:54:54.872Z,25.80
2022-08-24T08:57:35.461Z,25.80
2022-08-24T09:00:24.528Z,25.80
2022-08-24T09:03:04.296Z,26.00
2022-08-24T09:05:50.790Z,26.20
2022-08-24T09:08:42.631Z,26.50
2022-08-24T09:11:49.044Z,26.70
2022-08-24T09:14:24.686Z,27.00
2022-08-24T09:17:22.221Z,27.10
2022-08-24T09:20:08.473Z,27.20
2022-08-24T09:22:43.894Z,27.40
2022-08-24T09:25:24.742Z,27.30
2022-08-24T09:28:07.905Z,27.40
2022-08-24T09:30:54.162Z,27.60
2022-08-24T09:33:27.793Z,27.90
2022-08-24T09:36:07.999Z,28.10
2022-08-24T09:39:14.257Z,28.20
2022-08-24T09:42:02.164Z,28.20
2022-08-24T09:45:21.871Z,28.40
2022-08-24T09:48:15.737Z,28.20
2022-08-24T09:51:01.584Z,28.20
2022-08-24T09:53:37.490Z,28.30
2022-08-24T09:56:25.126Z,28.50
2022-08-24T09:59:11.082Z,28.70
2022-08-24T10:01:44.065Z,29.10
2022-08-24T10:04:32.006Z,29.20
2022-08-24T10:07:04.649Z,29.10
2022-08-24T10:10:08.644Z,28.90
2022-08-24T10:12:55.555Z,28.70
2022-08-24T10:15:47.044Z,28.80
2022-08-24T10:18:54.746Z,29.00
2022-08-24T10:21:52.710Z,29.30
2022-08-24T10:24:34.617Z,29.70
2022-08-24T10:27:21.223Z,29.90
2022-08-24T10:30:10.015Z,29.90
2022-08-24T10:33:07.090Z,30.10
2022-08-24T10:35:55.645Z,30.30
2022-08-24T10:38:52.986Z,30.40
2022-08-24T10:41:47.935Z,30.40
2022-08-24T10:44:34.433Z,30.70
2022-08-24T10:47:05.658Z,30.80
2022-08-24T10:49:37.937Z,31.00
2022-08-24T10:52:23.210Z,31.30
2022-08-24T10:54:52.683Z,31.50
2022-08-24T10:57:47.953Z,31.40
2022-08-24T11:00:22.854Z,31.50
2022-08-24T11:03:04.924Z,31.70
2022-08-24T11:05:49.470Z,31.90
2022-08-24T11:08:25.480Z,32.10
2022-08-24T11:11:07.120Z,32.10
2022-08-24T11:13:36.548Z,32.20
2022-08-24T11:16:05.646Z,32.30
2022-08-24T11:18:54.330Z,32.40
2022-08-24T11:21:33.969Z,32.40
2022-08-24T11:24:11.384Z,32.50
2022-08-24T11:27:03.802Z,32.60
2022-08-24T11:29:52.255Z,32.60
2022-08-24T11:32:47.697Z,32.40
2022-08-24T11:35:26.534Z,32.50
2022-08-24T11:38:03.216Z,32.70
2022-08-24T11:40:36.210Z,32.80
2022-08-24T11:43:19.348Z,33.00
2022-08-24T11:46:04.438Z,33.30
2022-08-24T11:48:43.741Z,33.40
2022-08-24T11:51:42.163Z,33.50
2022-08-24T11:54:22.024Z,33.70
2022-08-24T11:57:26.479Z,33.80
2022-08-24T12:00:05.342Z,34.00
2022-08-24T12:03:02.425Z,34.20
2022-08-24T12:05:32.117Z,34.30
2022-08-24T12:08:01.900Z,34.30
2022-08-24T12:10:46.955Z,34.10
2022-08-24T12:13:38.637Z,34.00
2022-08-24T12:16:24.627Z,34.10
2022-08-24T12:19:01.029Z,34.30
2022-08-24T12:21:34.252Z,34.40
2022-08-24T12:24:04.654Z,34.40
2022-08-24T12:26:46.817Z,34.10
2022-08-24T12:29:34.341Z,34.20
2022-08-24T12:32:14.599Z,34.40
2022-08-24T12:35:05.704Z,34.60
2022-08-24T12:37:43.868Z,34.60
2022-08-24T12:40:39.978Z,34.80
2022-08-24T12:43:12.419Z,34.60
2022-08-24T12:45:39.148Z,34.70
2022-08-24T12:48:13.911Z,34.70
2022-08-24T12:50:52.665Z,34.90
2022-08-24T12:53:45.574Z,35.00
2022-08-24T12:56:34.605Z,35.10
2022-08-24T12:59:26.668Z,35.20
2022-08-24T13:02:04.831Z,35.20
2022-08-24T13:04:43.620Z,35.10
2022-08-24T13:07:19.531Z,35.20
2022-08-24T13:09:49.964Z,35.20
2022-08-24T13:12:38.701Z,35.10
2022-08-24T13:15:45.798Z,35.00
2022-08-24T13:18:12.485Z,35.00
2022-08-24T13:20:45.263Z,35.10
2022-08-24T13:23:22.282Z,35.30
2022-08-24T13:25:51.647Z,35.30
2022-08-24T13:28:24.437Z,35.40
2022-08-24T13:30:54.298Z,35.40
2022-08-24T13:33:40.999Z,35.40
2022-08-24T13:36:29.451Z,35.30
2022-08-24T13:38:56.140Z,35.40
2022-08-24T13:41:43.573Z,35.40
2022-08-24T13:44:19.188Z,35.40
2022-08-24T13:47:31.205Z,35.40
2022-08-24T13:50:35.634Z,35.60
2022-08-24T13:53:27.092Z,35.50
2022-08-24T13:56:11.769Z,35.50
2022-08-24T13:59:06.829Z,35.40
2022-08-24T14:01:58.800Z,35.40
2022-08-24T14:04:31.037Z,35.40
2022-08-24T14:07:16.297Z,35.10
2022-08-24T14:10:09.864Z,35.10
2022-08-24T14:12:49.508Z,35.10
2022-08-24T14:15:29.055Z,35.20
2022-08-24T14:18:37.809Z,35.20
2022-08-24T14:21:17.933Z,35.30
2022-08-24T14:24:04.326Z,35.20
2022-08-24T14:26:36.842Z,35.30
2022-08-24T14:29:18.932Z,35.40
2022-08-24T14:32:08.686Z,35.50
2022-08-24T14:34:53.890Z,35.60
2022-08-24T14:37:33.712Z,35.60
2022-08-24T14:40:35.012Z,35.60
2022-08-24T14:43:28.463Z,35.50
2022-08-24T14:46:12.331Z,35.40
2022-08-24T14:49:06.451Z,35.20
2022-08-24T14:51:41.780Z,35.00
2022-08-24T14:54:50.047Z,34.80
2022-08-24T14:57:50.745Z,34.60
2022-08-24T15:00:35.830Z,34.60
2022-08-24T15:03:05.312Z,34.60
2022-08-24T15:05:34.979Z,34.50
2022-08-24T15:08:12.352Z,34.60
2022-08-24T15:11:00.886Z,34.60
2022-08-24T15:13:45.517Z,34.90
2022-08-24T15:16:21.140Z,35.20
2022-08-24T15:19:11.976Z,35.40
2022-08-24T15:21:47.198Z,35.70
2022-08-24T17:50:36.802Z,32.20
2022-08-24T17:53:03.805Z,31.90
2022-08-24T17:55:33.054Z,31.80
2022-08-24T17:58:02.674Z,31.70
2022-08-24T18:00:29.439Z,31.50
2022-08-24T18:02:59.140Z,31.50
2022-08-24T18:05:26.424Z,31.30
2022-08-24T18:07:55.713Z,31.20
2022-08-24T18:10:29.200Z,31.10
2022-08-24T18:12:57.955Z,30.90
2022-08-24T18:15:33.630Z,30.80
2022-08-24T18:18:09.046Z,30.70
2022-08-24T18:20:39.207Z,30.60
2022-08-24T18:23:11.631Z,30.50
2022-08-24T18:25:44.263Z,30.40
2022-08-24T18:28:11.314Z,30.30
2022-08-24T18:30:40.594Z,30.20
2022-08-24T18:33:08.579Z,30.20
2022-08-24T18:35:37.639Z,30.10
2022-08-24T18:38:04.623Z,30.00
2022-08-24T18:40:33.389Z,29.90
2022-08-24T18:43:03.415Z,29.90
2022-08-24T18:45:32.924Z,29.80
2022-08-24T18:47:59.764Z,29.60
2022-08-24T18:50:28.779Z,29.50
2022-08-24T18:52:57.545Z,29.40
2022-08-24T18:55:27.707Z,29.30
2022-08-24T18:57:55.037Z,29.20
2022-08-24T19:00:22.023Z,29.00
2022-08-24T19:02:49.311Z,28.80
2022-08-24T19:05:22.400Z,28.70
2022-08-24T19:07:51.921Z,28.70
2022-08-24T19:10:22.631Z,28.60
2022-08-24T19:13:02.279Z,28.40
2022-08-24T19:15:39.568Z,28.30
2022-08-24T19:18:09.635Z,28.20
2022-08-24T19:20:39.057Z,28.10
2022-08-24T19:23:12.824Z,28.00
2022-08-24T19:25:44.574Z,28.00
2022-08-24T19:28:11.969Z,27.80
2022-08-24T19:30:42.349Z,27.70
2022-08-24T19:33:13.832Z,27.70
2022-08-24T19:35:41.305Z,27.50
2022-08-24T19:38:08.073Z,27.50
2022-08-24T19:40:36.951Z,27.40
2022-08-24T19:43:06.031Z,27.40
2022-08-24T19:45:54.037Z,27.30
2022-08-24T19:48:23.269Z,27.30
2022-08-24T19:50:51.893Z,27.10
2022-08-24T19:53:18.904Z,27.00
2022-08-24T19:55:49.741Z,26.90
2022-08-24T19:58:37.400Z,26.80
2022-08-24T20:01:13.215Z,26.70
2022-08-24T20:03:41.099Z,26.70
2022-08-24T20:06:08.095Z,26.50
2022-08-24T20:08:34.840Z,26.40
2022-08-24T20:11:04.232Z,26.20
2022-08-24T20:13:30.938Z,26.10
2022-08-24T20:15:57.832Z,26.00
2022-08-24T20:18:30.705Z,26.00
2022-08-24T20:21:00.984Z,25.80
2022-08-24T20:23:29.440Z,25.80
2022-08-24T20:25:58.340Z,25.70
2022-08-24T20:28:35.988Z,25.60
2022-08-24T20:31:04.888Z,25.50
2022-08-24T20:33:31.800Z,25.50
2022-08-24T20:35:59.028Z,25.40
2022-08-24T20:38:32.093Z,25.40
2022-08-24T20:41:00.103Z,25.30
2022-08-24T20:43:27.721Z,25.20
2022-08-24T20:45:55.052Z,25.10
2022-08-24T20:48:31.217Z,25.10
2022-08-24T20:50:58.907Z,25.10
2022-08-24T20:53:28.450Z,25.00
2022-08-24T20:55:57.173Z,25.00
2022-08-24T20:58:26.437Z,24.80
2022-08-24T21:00:53.277Z,24.80
2022-08-24T21:03:20.298Z,24.80
2022-08-24T21:05:48.489Z,24.80
2022-08-24T21:08:15.331Z,24.70
2022-08-24T21:10:42.630Z,24.60
2022-08-24T21:13:12.679Z,24.60
2022-08-24T21:15:41.355Z,24.40
2022-08-24T21:18:10.140Z,24.40
2022-08-24T21:20:38.424Z,24.30
2022-08-24T21:23:12.747Z,24.30
2022-08-24T21:25:39.909Z,24.20
2022-08-24T21:28:07.168Z,24.20
2022-08-24T21:30:34.903Z,24.20
2022-08-24T21:33:24.410Z,24.20
2022-08-24T21:35:53.839Z,24.20
2022-08-24T21:38:22.788Z,24.20
2022-08-24T21:40:52.186Z,24.10
2022-08-24T21:43:20.183Z,24.00
2022-08-24T21:45:50.012Z,24.00
2022-08-24T21:48:17.843Z,24.00
2022-08-24T21:50:45.407Z,24.00
2022-08-24T21:53:12.116Z,24.00
2022-08-24T21:55:41.370Z,24.10
2022-08-24T21:58:10.056Z,24.10
2022-08-24T22:00:37.576Z,24.10
2022-08-24T22:03:05.463Z,24.10
2022-08-24T22:05:32.527Z,24.10
2022-08-24T22:07:59.374Z,23.90
2022-08-24T22:10:26.349Z,23.90
2022-08-24T22:12:53.474Z,23.90
2022-08-24T22:15:23.240Z,23.90
2022-08-24T22:17:52.821Z,23.80
2022-08-24T22:20:23.499Z,23.70
2022-08-24T22:22:51.146Z,23.70
2022-08-24T22:25:20.047Z,23.60
2022-08-24T22:27:47.388Z,23.60
2022-08-24T22:30:17.110Z,23.60
2022-08-24T22:32:47.454Z,23.60
2022-08-24T22:35:14.393Z,23.60
2022-08-24T22:37:41.771Z,23.60
2022-08-24T22:40:12.396Z,23.60
2022-08-24T22:42:39.978Z,23.50
2022-08-24T22:45:09.945Z,23.40
2022-08-24T22:47:38.194Z,23.40
2022-08-24T22:50:05.953Z,23.40
2022-08-24T22:52:32.725Z,23.30
2022-08-24T22:55:01.679Z,23.30
2022-08-24T22:57:30.346Z,23.30
2022-08-24T22:59:57.924Z,23.30
2022-08-24T23:02:24.662Z,23.10
2022-08-24T23:04:52.452Z,23.10
2022-08-24T23:07:19.927Z,23.20
2022-08-24T23:09:47.507Z,23.10
2022-08-24T23:12:18.714Z,23.20
2022-08-24T23:14:45.947Z,23.20
2022-08-24T23:17:12.707Z,23.20
2022-08-24T23:20:00.577Z,23.10
2022-08-24T23:22:31.633Z,23.10
2022-08-24T23:25:01.393Z,23.00
2022-08-24T23:27:32.990Z,22.90
2022-08-24T23:30:09.283Z,22.80
2022-08-24T23:32:36.111Z,22.70
2022-08-24T23:35:04.297Z,22.70
2022-08-24T23:37:31.173Z,22.70
2022-08-24T23:39:58.615Z,22.60
2022-08-24T23:42:27.828Z,22.60
2022-08-24T23:44:54.530Z,22.60
2022-08-24T23:47:21.785Z,22.60
2022-08-24T23:49:48.464Z,22.60
2022-08-24T23:52:26.727Z,22.70
2022-08-24T23:54:56.087Z,22.70
2022-08-24T23:57:39.311Z,22.70
